createdAt,value
2018-07-13T00:02:01.139Z,99932.11
2018-07-13T00:06:04.616Z,99926.81
2018-07-13T00:10:08.073Z,99922.84
2018-07-13T00:14:27.062Z,99918.46
2018-07-13T00:18:30.887Z,99920.08
2018-07-13T00:22:34.379Z,99927.37
2018-07-13T00:26:38.531Z,99921.77
2018-07-13T00:30:41.991Z,99927.78
2018-07-13T00:34:45.481Z,99932.39
2018-07-13T00:38:48.939Z,99930.24
2018-07-13T00:42:52.443Z,99926.80
2018-07-13T00:46:55.911Z,99925.51
2018-07-13T00:50:59.362Z,99920.69
2018-07-13T00:55:02.816Z,99928.78
2018-07-13T00:59:06.363Z,99937.66
2018-07-13T01:03:10.771Z,99928.70
2018-07-13T01:07:14.229Z,99936.19
2018-07-13T01:11:17.776Z,99932.70
2018-07-13T01:15:21.217Z,99932.37
2018-07-13T01:19:24.654Z,99935.25
2018-07-13T01:23:29.167Z,99930.91
2018-07-13T01:27:32.634Z,99935.86
2018-07-13T01:31:36.070Z,99927.51
2018-07-13T01:35:39.559Z,99920.54
2018-07-13T01:39:42.998Z,99929.58
2018-07-13T01:43:46.500Z,99930.14
2018-07-13T01:47:49.989Z,99926.64
2018-07-13T01:51:53.493Z,99928.06
2018-07-13T01:55:56.986Z,99927.25
2018-07-13T02:00:00.410Z,99931.73
2018-07-13T02:04:03.898Z,99931.84
2018-07-13T02:08:07.363Z,99941.23
2018-07-13T02:12:10.926Z,99933.27
2018-07-13T02:16:14.423Z,99936.84
2018-07-13T02:20:17.859Z,99937.40
2018-07-13T02:24:21.438Z,99931.28
2018-07-13T02:28:24.889Z,99930.45
2018-07-13T02:32:28.324Z,99924.34
2018-07-13T02:36:31.867Z,99933.33
2018-07-13T02:40:35.428Z,99924.97
2018-07-13T02:44:38.876Z,99924.97
2018-07-13T02:48:42.352Z,99933.89
2018-07-13T02:52:45.857Z,99929.80
2018-07-13T02:56:49.311Z,99934.08
2018-07-13T03:00:52.743Z,99934.89
2018-07-13T03:04:56.195Z,99938.73
2018-07-13T03:08:59.796Z,99945.28
2018-07-13T03:13:03.269Z,99942.05
2018-07-13T03:17:06.803Z,99940.59
2018-07-13T03:21:10.234Z,99940.98
2018-07-13T03:25:13.696Z,99948.60
2018-07-13T03:29:17.138Z,99950.49
2018-07-13T03:33:20.603Z,99952.27
2018-07-13T03:37:24.020Z,99949.67
2018-07-13T03:41:27.422Z,99959.53
2018-07-13T03:45:30.884Z,99958.70
2018-07-13T03:49:34.348Z,99964.95
2018-07-13T03:53:37.828Z,99964.95
2018-07-13T03:57:41.271Z,99969.47
2018-07-13T04:01:44.758Z,99969.98
2018-07-13T04:05:48.232Z,99976.30
2018-07-13T04:09:51.718Z,99975.04
2018-07-13T04:13:55.148Z,99971.91
2018-07-13T04:17:58.620Z,99974.06
2018-07-13T04:22:02.102Z,99977.16
2018-07-13T04:26:05.545Z,99977.48
2018-07-13T04:30:08.990Z,99977.35
2018-07-13T04:34:12.594Z,99967.03
2018-07-13T04:38:16.017Z,99959.36
2018-07-13T04:42:19.460Z,99960.61
2018-07-13T04:46:22.953Z,99958.05
2018-07-13T04:50:26.442Z,99960.06
2018-07-13T04:54:29.903Z,99962.56
2018-07-13T04:58:33.354Z,99954.68
2018-07-13T05:02:37.070Z,99955.20
2018-07-13T05:06:40.487Z,99957.47
2018-07-13T05:10:43.994Z,99949.98
2018-07-13T05:14:47.425Z,99954.41
2018-07-13T05:18:50.890Z,99957.42
2018-07-13T05:22:54.356Z,99960.08
2018-07-13T05:26:57.857Z,99951.52
2018-07-13T05:31:01.353Z,99958.16
2018-07-13T05:35:04.883Z,99952.39
2018-07-13T05:39:10.413Z,99958.09
2018-07-13T05:43:13.854Z,99953.90
2018-07-13T05:47:17.277Z,99949.33
2018-07-13T05:51:20.718Z,99948.20
2018-07-13T05:55:24.366Z,99951.67
2018-07-13T05:59:28.074Z,99952.82
2018-07-13T06:03:32.549Z,99952.70
2018-07-13T06:07:36.049Z,99952.58
2018-07-13T06:11:39.970Z,99956.34
2018-07-13T06:15:43.402Z,99958.80
2018-07-13T06:19:47.231Z,99953.22
2018-07-13T06:23:50.898Z,99960.82
2018-07-13T06:27:54.415Z,99970.30
2018-07-13T06:31:57.862Z,99970.20
2018-07-13T06:36:01.380Z,99975.04
2018-07-13T06:40:04.932Z,99974.54
2018-07-13T06:44:08.413Z,99973.55
2018-07-13T06:48:11.891Z,99980.97
2018-07-13T06:52:15.342Z,99973.31
2018-07-13T06:56:18.772Z,99974.77
2018-07-13T07:00:57.909Z,99977.72
2018-07-13T07:05:15.210Z,99979.02
2018-07-13T07:09:18.671Z,99984.83
2018-07-13T07:13:31.253Z,99989.04
2018-07-13T07:17:34.927Z,99972.05
2018-07-13T07:21:38.406Z,99980.09
2018-07-13T07:25:41.845Z,99996.16
2018-07-13T07:29:45.278Z,99990.00
2018-07-13T07:33:48.655Z,99989.03
2018-07-13T07:37:52.080Z,99992.50
2018-07-13T07:41:55.521Z,99989.80
2018-07-13T07:45:59.012Z,99980.78
2018-07-13T07:50:02.536Z,99987.91
2018-07-13T07:54:06.374Z,99986.09
2018-07-13T07:58:09.825Z,99987.20
2018-07-13T08:02:13.283Z,99986.77
2018-07-13T08:06:16.850Z,99983.11
2018-07-13T08:10:20.120Z,99989.09
2018-07-13T08:14:23.555Z,99977.38
2018-07-13T08:18:26.987Z,99973.25
2018-07-13T08:22:40.088Z,99968.33
2018-07-13T08:26:43.647Z,99966.94
2018-07-13T08:30:51.615Z,99976.20
2018-07-13T08:34:55.099Z,99965.62
2018-07-13T08:38:58.534Z,99969.98
2018-07-13T08:43:01.942Z,99975.81
2018-07-13T08:47:05.357Z,99967.34
2018-07-13T08:51:08.777Z,99954.77
2018-07-13T08:55:13.591Z,99962.48
2018-07-13T08:59:17.037Z,99956.83
2018-07-13T09:03:20.532Z,99961.03
2018-07-13T09:07:24.015Z,99952.49
2018-07-13T09:11:27.482Z,99950.38
2018-07-13T09:15:30.901Z,99957.32
2018-07-13T09:19:34.356Z,99960.61
2018-07-13T09:23:37.921Z,99957.33
2018-07-13T09:27:41.760Z,99950.90
2018-07-13T09:31:45.183Z,99955.81
2018-07-13T09:35:48.675Z,99952.16
2018-07-13T09:39:52.076Z,99941.17
2018-07-13T09:43:55.550Z,99948.53
2018-07-13T09:47:58.949Z,99958.39
2018-07-13T09:52:02.424Z,99959.05
2018-07-13T09:56:05.862Z,99950.17
2018-07-13T10:00:11.417Z,99944.84
2018-07-13T10:04:14.840Z,99952.95
2018-07-13T10:08:18.286Z,99932.65
2018-07-13T10:12:21.734Z,99938.72
2018-07-13T10:16:25.158Z,99930.32
2018-07-13T10:20:28.557Z,99927.31
2018-07-13T10:24:33.108Z,99928.20
2018-07-13T10:28:38.765Z,99924.72
2018-07-13T10:32:43.575Z,99921.59
2018-07-13T10:36:52.406Z,99916.75
2018-07-13T10:40:55.870Z,99922.30
2018-07-13T10:44:59.308Z,99915.48
2018-07-13T10:49:02.721Z,99913.78
2018-07-13T10:53:06.262Z,99905.91
2018-07-13T10:57:09.677Z,99909.18
2018-07-13T11:01:13.112Z,99914.25
2018-07-13T11:05:16.542Z,99899.24
2018-07-13T11:09:19.978Z,99897.39
2018-07-13T11:13:23.395Z,99907.84
2018-07-13T11:17:26.798Z,99892.69
2018-07-13T11:21:30.277Z,99893.64
2018-07-13T11:25:33.807Z,99890.05
2018-07-13T11:29:37.253Z,99887.00
2018-07-13T11:33:40.700Z,99904.45
2018-07-13T11:37:44.134Z,99905.31
2018-07-13T11:41:47.659Z,99895.34
2018-07-13T11:45:51.087Z,99894.55
2018-07-13T11:49:54.486Z,99891.77
2018-07-13T11:53:58.047Z,99891.77
2018-07-13T11:58:01.466Z,99895.92
2018-07-13T12:02:04.985Z,99894.72
2018-07-13T12:06:08.598Z,99891.95
2018-07-13T12:10:12.037Z,99894.59
2018-07-13T12:14:15.499Z,99889.72
2018-07-13T12:18:18.985Z,99883.66
2018-07-13T12:22:22.433Z,99885.23
2018-07-13T12:26:25.850Z,99880.14
2018-07-13T12:30:29.485Z,99876.99
2018-07-13T12:34:32.915Z,99874.06
2018-07-13T12:38:36.396Z,99874.21
2018-07-13T12:42:39.838Z,99871.94
2018-07-13T12:46:43.285Z,99863.52
2018-07-13T12:50:46.775Z,99860.12
2018-07-13T12:54:50.282Z,99872.94
2018-07-13T12:58:53.762Z,99876.06
2018-07-13T13:02:57.212Z,99880.75
2018-07-13T13:07:00.629Z,99871.80
2018-07-13T13:11:04.049Z,99865.45
2018-07-13T13:15:07.849Z,99865.22
2018-07-13T13:19:11.281Z,99851.50
2018-07-13T13:23:14.786Z,99862.38
2018-07-13T13:27:18.248Z,99851.20
2018-07-13T13:31:21.715Z,99854.95
2018-07-13T13:35:25.150Z,99858.66
2018-07-13T13:39:28.591Z,99865.02
2018-07-13T13:43:32.064Z,99864.91
2018-07-13T13:47:35.487Z,99868.86
2018-07-13T13:51:38.998Z,99875.33
2018-07-13T13:55:42.422Z,99871.84
2018-07-13T13:59:45.900Z,99876.72
2018-07-13T14:03:49.396Z,99880.26
2018-07-13T14:07:52.810Z,99878.73
2018-07-13T14:11:56.287Z,99872.20
2018-07-13T14:15:59.709Z,99869.23
2018-07-13T14:20:03.123Z,99862.67
2018-07-13T14:24:06.648Z,99859.60
2018-07-13T14:28:10.094Z,99893.41
2018-07-13T14:32:13.509Z,99905.50
2018-07-13T14:36:16.976Z,99894.94
2018-07-13T14:40:20.421Z,99888.78
2018-07-13T14:44:23.814Z,99889.25
2018-07-13T14:48:27.278Z,99899.08
2018-07-13T14:52:30.925Z,99897.06
2018-07-13T14:56:34.521Z,99892.82
2018-07-13T15:00:37.931Z,99887.14
2018-07-13T15:04:41.420Z,99886.55
2018-07-13T15:08:44.897Z,99896.01
2018-07-13T15:12:48.313Z,99897.83
2018-07-13T15:16:51.779Z,99910.06
2018-07-13T15:20:55.210Z,99907.72
2018-07-13T15:24:58.678Z,99910.84
2018-07-13T15:29:02.085Z,99898.27
2018-07-13T15:33:05.561Z,99893.80
2018-07-13T15:37:09.002Z,99896.59
2018-07-13T15:41:12.416Z,99896.98
2018-07-13T15:45:15.851Z,99896.81
2018-07-13T15:49:19.306Z,99894.89
2018-07-13T15:53:22.743Z,99884.38
2018-07-13T15:57:26.178Z,99888.73
2018-07-13T16:01:29.594Z,99899.12
2018-07-13T16:05:33.077Z,99905.77
2018-07-13T16:09:36.510Z,99906.61
2018-07-13T16:13:39.937Z,99906.59
2018-07-13T16:17:43.620Z,99903.84
2018-07-13T16:21:47.036Z,99898.78
2018-07-13T16:25:50.622Z,99892.15
2018-07-13T16:29:54.057Z,99894.29
2018-07-13T16:33:57.532Z,99892.98
2018-07-13T16:38:00.947Z,99897.20
2018-07-13T16:42:04.365Z,99895.07
2018-07-13T16:46:07.809Z,99893.23
2018-07-13T16:50:11.224Z,99889.77
2018-07-13T16:54:14.738Z,99892.55
2018-07-13T16:58:18.178Z,99891.84
2018-07-13T17:02:21.636Z,99888.30
2018-07-13T17:06:25.092Z,99876.73
2018-07-13T17:10:28.517Z,99880.78
2018-07-13T17:14:31.966Z,99880.94
2018-07-13T17:18:35.399Z,99875.96
2018-07-13T17:22:38.855Z,99877.67
2018-07-13T17:26:42.288Z,99873.27
2018-07-13T17:30:45.699Z,99879.59
2018-07-13T17:34:49.191Z,99883.80
2018-07-13T17:38:52.625Z,99888.98
2018-07-13T17:42:56.113Z,99890.28
2018-07-13T17:46:59.508Z,99892.52
2018-07-13T17:51:02.924Z,99891.09
2018-07-13T17:55:06.375Z,99886.52
2018-07-13T17:59:09.833Z,99890.71
2018-07-13T18:03:13.287Z,99893.03
2018-07-13T18:07:16.824Z,99889.64
2018-07-13T18:11:20.282Z,99892.08
2018-07-13T18:15:23.934Z,99892.35
2018-07-13T18:19:27.393Z,99892.02
2018-07-13T18:23:30.833Z,99892.18
2018-07-13T18:27:34.254Z,99896.48
2018-07-13T18:31:37.676Z,99895.37
2018-07-13T18:35:41.178Z,99900.84
2018-07-13T18:39:44.704Z,99902.26
2018-07-13T18:43:48.193Z,99911.30
2018-07-13T18:47:52.000Z,99915.42
2018-07-13T18:51:55.772Z,99916.92
2018-07-13T18:55:59.239Z,99920.17
2018-07-13T19:00:02.637Z,99925.41
2018-07-13T19:04:06.099Z,99937.67
2018-07-13T19:08:09.537Z,99941.78
2018-07-13T19:12:13.006Z,99944.70
2018-07-13T19:16:16.437Z,99946.34
2018-07-13T19:20:19.952Z,99949.95
2018-07-13T19:24:23.414Z,99954.91
2018-07-13T19:28:26.839Z,99953.48
2018-07-13T19:32:30.423Z,99959.97
2018-07-13T19:36:33.932Z,99959.19
2018-07-13T19:40:37.348Z,99966.05
2018-07-13T19:44:41.032Z,99957.75
2018-07-13T19:48:44.464Z,99960.09
2018-07-13T19:52:48.260Z,99967.14
2018-07-13T19:56:51.691Z,99958.49
2018-07-13T20:00:55.118Z,99960.05
2018-07-13T20:04:58.545Z,99958.98
2018-07-13T20:09:02.041Z,99961.02
2018-07-13T20:13:05.462Z,99967.88
2018-07-13T20:17:08.905Z,99967.67
2018-07-13T20:21:12.343Z,99969.25
2018-07-13T20:25:15.801Z,99973.48
2018-07-13T20:29:19.304Z,99980.89
2018-07-13T20:33:22.762Z,99977.54
2018-07-13T20:37:26.207Z,99981.88
2018-07-13T20:41:29.724Z,99982.55
2018-07-13T20:45:33.231Z,99984.95
2018-07-13T20:49:36.657Z,99985.19
2018-07-13T20:53:40.101Z,99991.23
2018-07-13T20:57:43.540Z,99991.91
2018-07-13T21:01:47.000Z,99996.55
2018-07-13T21:05:50.406Z,99999.91
2018-07-13T21:09:53.835Z,99995.52
2018-07-13T21:13:57.282Z,99996.55
2018-07-13T21:18:00.705Z,100000.19
2018-07-13T21:22:04.113Z,99992.36
2018-07-13T21:26:07.539Z,99989.86
2018-07-13T21:30:10.987Z,99992.23
2018-07-13T21:34:14.437Z,99991.39
2018-07-13T21:38:17.917Z,99992.89
2018-07-13T21:42:21.395Z,99999.38
2018-07-13T21:46:24.910Z,99999.66
2018-07-13T21:50:28.364Z,99993.67
2018-07-13T21:54:31.799Z,100001.23
2018-07-13T21:58:35.217Z,100006.80
2018-07-13T22:02:38.753Z,99998.88
2018-07-13T22:06:42.318Z,100009.84
2018-07-13T22:10:45.804Z,100013.84
2018-07-13T22:14:49.270Z,100010.47
2018-07-13T22:18:52.716Z,100010.11
2018-07-13T22:22:56.152Z,100003.88
2018-07-13T22:26:59.618Z,100007.06
2018-07-13T22:31:03.089Z,100005.45
2018-07-13T22:35:06.694Z,100008.25
2018-07-13T22:39:10.121Z,100010.66
2018-07-13T22:43:13.547Z,100011.73
2018-07-13T22:47:16.987Z,100008.80
2018-07-13T22:51:20.467Z,100001.08
2018-07-13T22:55:24.004Z,100005.33
2018-07-13T22:59:27.487Z,100014.00
2018-07-13T23:03:32.006Z,100009.71
2018-07-13T23:07:35.442Z,100004.52
2018-07-13T23:11:38.910Z,100006.86
2018-07-13T23:15:42.381Z,100004.66
2018-07-13T23:19:45.846Z,100004.30
2018-07-13T23:23:49.260Z,100005.74
2018-07-13T23:27:52.695Z,100000.53
2018-07-13T23:35:58.577Z,99995.67
2018-07-13T23:40:02.006Z,99993.52
2018-07-13T23:44:05.443Z,99993.94
2018-07-13T23:48:08.855Z,99997.06
2018-07-13T23:52:12.338Z,99998.88
2018-07-13T23:56:15.849Z,99996.20
